Terminal Aerodrome Forecast
Issued by NWS Huntsville, AL

Home | Current Version | Previous Version | Text Only | Print | Product List | Glossary On
Versions: 1 2 3 4 5 6 7 8 9 10 11 12 13 14 15 16 17
000
FTUS44 KHUN 180534
TAFHSV
TAF
KHSV 180534Z 1806/1906 29005KT P6SM BKN015 OVC035
     FM181700 36005KT P6SM SCT020 BKN030
     FM182200 04005KT P6SM SCT030 BKN060=

USA.gov is the U.S. government's official web portal to all federal, state and local government web resources and services.